Time;durP1;ratioP1;P1;durP2;ratioP2;P2;SDS_P1;SDS_P2;PMS_P1;PMS_P2;Temp;Humidity;BMP_temperature;BMP_pressure;BME280_temperature;BME280_humidity;BME280_pressure;Samples;Min_cycle;Max_cycle;Signal;HPM_P1;HPM_P2
2021/12/04 00:00:44;;;;;;;48.13;6.73;;;1.20;99.90;;;;;;4985963;28;20237;-51
2021/12/04 00:03:10;;;;;;;81.00;10.90;;;;;;;;;;4986949;28;20851;-51
2021/12/04 00:05:38;;;;;;;118.67;15.40;;;1.40;99.90;;;;;;4984802;28;20266;-50
2021/12/04 00:08:04;;;;;;;85.07;11.50;;;;;;;;;;4988148;28;20190;-51
2021/12/04 00:10:31;;;;;;;86.87;11.57;;;;;;;;;;4991396;28;20212;-51
2021/12/04 00:12:57;;;;;;;86.37;11.67;;;;;;;;;;4989428;28;20709;-51
2021/12/04 00:15:23;;;;;;;122.37;15.70;;;;;;;;;;4987035;28;20225;-50
2021/12/04 00:17:49;;;;;;;108.07;13.77;;;;;;;;;;4979458;28;20205;-50
2021/12/04 00:20:15;;;;;;;74.83;10.03;;;1.20;99.90;;;;;;4983759;28;20221;-50
2021/12/04 00:22:41;;;;;;;82.47;11.03;;;;;;;;;;4988105;28;20185;-50
2021/12/04 00:25:08;;;;;;;88.27;11.80;;;1.30;99.90;;;;;;4989954;28;20598;-51
2021/12/04 00:27:34;;;;;;;84.03;11.33;;;;;;;;;;4983330;28;20257;-51
2021/12/04 00:30:00;;;;;;;118.03;15.53;;;;;;;;;;4974374;28;20233;-51
2021/12/04 00:32:31;;;;;;;44.77;6.33;;;;;;;;;;4990985;28;20220;-51
2021/12/04 00:35:21;;;;;;;59.37;8.17;;;;;;;;;;4984021;28;24650;-51
2021/12/04 00:38:03;;;;;;;74.43;10.27;;;;;;;;;;4992164;28;20200;-51
2021/12/04 00:51:09;;;;;;;51.17;7.20;;;;;;;;;;4989911;28;20566;-51
2021/12/04 00:53:35;;;;;;;114.00;15.00;;;;;;;;;;4993026;28;20570;-50
2021/12/04 00:56:01;;;;;;;81.23;11.13;;;;;;;;;;4993824;28;20655;-51
2021/12/04 00:58:27;;;;;;;66.43;9.27;;;1.20;99.90;;;;;;4998403;28;20182;-51
2021/12/04 01:00:53;;;;;;;97.63;13.17;;;;;;;;;;4986951;28;20241;-50
2021/12/04 01:03:19;;;;;;;106.87;14.30;;;;;;;;;;4987912;28;20216;-50
2021/12/04 01:05:45;;;;;;;44.77;6.27;;;;;;;;;;4988184;28;20681;-50
2021/12/04 01:08:11;;;;;;;111.47;15.17;;;;;;;;;;4987991;28;20243;-51
2021/12/04 01:10:37;;;;;;;76.37;10.33;;;;;;;;;;4990349;28;20210;-50
2021/12/04 01:13:06;;;;;;;37.10;5.40;;;1.30;99.90;;;;;;4988200;28;20248;-51
2021/12/04 01:15:32;;;;;;;47.93;6.73;;;1.20;99.90;;;;;;4993391;28;20213;-50
2021/12/04 01:17:58;;;;;;;59.83;8.10;;;;;;;;;;4996360;28;20214;-51
2021/12/04 01:20:24;;;;;;;106.77;13.77;;;;;;;;;;4988914;28;20232;-51
2021/12/04 01:22:50;;;;;;;60.37;8.30;;;;;;;;;;4995168;28;20181;-51
2021/12/04 01:25:16;;;;;;;55.53;7.60;;;;;;;;;;4995225;28;20217;-50
2021/12/04 01:27:43;;;;;;;79.03;10.57;;;;;;;;;;4996452;28;20221;-51
2021/12/04 01:30:09;;;;;;;87.87;11.60;;;;;;;;;;4988968;28;20228;-50
2021/12/04 01:32:35;;;;;;;39.67;5.67;;;;;;;;;;4999098;28;20212;-50
2021/12/04 01:35:01;;;;;;;65.93;9.00;;;;;;;;;;4991258;28;20202;-51
2021/12/04 01:37:27;;;;;;;117.10;15.20;;;;;;;;;;4991953;28;20196;-50
2021/12/04 01:39:53;;;;;;;57.30;7.90;;;;;;;;;;4994143;28;20286;-50
2021/12/04 01:42:20;;;;;;;69.43;10.27;;;1.20;99.90;;;;;;4982045;28;20854;-50
2021/12/04 01:44:50;;;;;;;90.20;12.33;;;1.20;99.90;;;;;;4987688;28;20558;-51
2021/12/04 01:47:20;;;;;;;85.30;11.70;;;1.20;99.90;;;;;;4993489;28;20243;-51
2021/12/04 01:49:48;;;;;;;45.73;6.37;;;;;;;;;;4998768;28;20215;-51
2021/12/04 01:52:15;;;;;;;82.30;11.23;;;;;;;;;;4988926;28;20216;-50
2021/12/04 01:54:41;;;;;;;68.80;9.30;;;;;;;;;;4993157;28;20744;-51
2021/12/04 01:57:07;;;;;;;95.33;12.83;;;;;;;;;;4986436;28;20213;-50
2021/12/04 01:59:33;;;;;;;82.07;11.03;;;;;;;;;;4984902;28;20230;-50
2021/12/04 02:01:59;;;;;;;113.43;14.73;;;;;;;;;;4989856;28;20713;-51
2021/12/04 02:04:25;;;;;;;76.73;10.47;;;;;;;;;;4995605;28;20204;-50
2021/12/04 02:06:51;;;;;;;58.83;8.47;;;1.30;99.90;;;;;;4987307;28;20221;-50
2021/12/04 02:09:17;;;;;;;48.13;6.63;;;;;;;;;;4993857;28;20876;-51
2021/12/04 02:11:43;;;;;;;49.63;6.83;;;;;;;;;;4990215;28;20240;-51
2021/12/04 02:14:08;;;;;;;58.13;7.93;;;1.00;99.90;;;;;;4988054;28;20208;-51
2021/12/04 02:16:34;;;;;;;49.53;7.20;;;;;;;;;;4986043;28;20181;-50
2021/12/04 02:19:00;;;;;;;59.37;8.03;;;;;;;;;;4992111;28;20685;-51
2021/12/04 02:21:26;;;;;;;45.77;6.40;;;;;;;;;;4992722;28;20636;-50
2021/12/04 02:23:53;;;;;;;69.63;9.47;;;1.60;99.90;;;;;;4990288;28;20230;-50
2021/12/04 02:26:19;;;;;;;141.17;19.07;;;;;;;;;;4991208;28;20225;-50
2021/12/04 02:28:46;;;;;;;48.23;6.97;;;1.20;99.90;;;;;;4989091;28;20211;-51
2021/12/04 02:31:12;;;;;;;70.73;9.77;;;;;;;;;;4992297;28;20266;-50
2021/12/04 02:33:38;;;;;;;126.07;16.73;;;;;;;;;;4987009;28;22618;-50
2021/12/04 02:36:06;;;;;;;57.27;7.97;;;1.20;99.90;;;;;;4992659;28;20244;-51
2021/12/04 02:38:32;;;;;;;95.97;13.03;;;;;;;;;;4990596;28;20216;-51
2021/12/04 02:41:02;;;;;;;78.30;11.73;;;1.20;99.90;;;;;;4992822;28;20573;-51
2021/12/04 02:43:32;;;;;;;75.00;10.20;;;1.20;99.90;;;;;;4986851;28;20224;-51
2021/12/04 02:45:58;;;;;;;52.63;7.23;;;;;;;;;;4989143;28;20217;-50
2021/12/04 02:48:24;;;;;;;59.27;8.20;;;;;;;;;;4987950;28;20914;-50
2021/12/04 02:50:50;;;;;;;84.03;11.57;;;;;;;;;;4992230;28;20243;-50
2021/12/04 02:53:17;;;;;;;77.37;10.73;;;;;;;;;;4986502;28;20864;-50
2021/12/04 02:55:43;;;;;;;67.77;9.37;;;;;;;;;;4994940;28;20208;-51
2021/12/04 02:58:09;;;;;;;91.10;12.20;;;;;;;;;;4987172;28;20693;-50
2021/12/04 03:00:36;;;;;;;89.63;12.07;;;;;;;;;;4985248;28;20240;-50
2021/12/04 03:03:03;;;;;;;61.43;8.27;;;1.10;99.90;;;;;;4987058;28;20263;-51
2021/12/04 03:05:29;;;;;;;114.70;15.00;;;;;;;;;;4975342;28;20236;-51
2021/12/04 03:07:57;;;;;;;83.10;11.33;;;1.20;99.90;;;;;;4988234;28;20233;-51
2021/12/04 03:10:25;;;;;;;78.60;10.77;;;1.20;99.90;;;;;;4990795;28;20264;-51
2021/12/04 03:12:51;;;;;;;105.37;14.20;;;;;;;;;;4991772;28;20219;-50
2021/12/04 03:15:17;;;;;;;41.03;5.80;;;;;;;;;;4987703;28;20593;-50
2021/12/04 03:17:43;;;;;;;81.87;10.97;;;;;;;;;;4992656;28;20629;-50
2021/12/04 03:20:10;;;;;;;101.67;13.57;;;1.20;99.90;;;;;;4994623;28;20216;-51
2021/12/04 03:22:37;;;;;;;53.43;7.40;;;;;;;;;;4987557;28;20189;-50
2021/12/04 03:25:03;;;;;;;56.87;7.80;;;1.50;99.90;;;;;;4984963;28;20227;-51
2021/12/04 03:27:31;;;;;;;57.23;8.07;;;;;;;;;;4986744;28;20224;-51
2021/12/04 03:30:04;;;;;;;37.43;5.67;;;1.10;99.90;;;;;;4994994;28;20264;-50
2021/12/04 03:32:55;;;;;;;66.53;9.23;;;;;;;;;;4989209;28;20227;-50
2021/12/04 03:40:01;;;;;;;68.90;9.40;;;;;;;;;;4987578;28;20225;-50
2021/12/04 03:41:11;;;;;;;83.97;11.77;;;;;;;;;;4948643;28;20221;-51
2021/12/04 03:43:37;;;;;;;37.43;5.50;;;;;;;;;;4957835;28;20226;-51
2021/12/04 03:46:04;;;;;;;90.37;12.57;;;1.10;99.90;;;;;;4964162;28;20226;-51
2021/12/04 03:50:58;;;;;;;71.03;9.73;;;0.30;99.90;;;;;;4994259;28;20233;-50
2021/12/04 03:53:24;;;;;;;68.43;9.33;;;;;;;;;;4995866;28;20232;-51
2021/12/04 03:55:51;;;;;;;20.73;3.03;;;1.20;99.90;;;;;;4991938;28;20673;-49
2021/12/04 03:58:19;;;;;;;35.83;4.73;;;1.30;99.90;;;;;;4990470;28;20566;-49
2021/12/04 04:00:45;;;;;;;24.20;3.43;;;1.10;99.90;;;;;;4990628;28;20586;-48
2021/12/04 04:03:11;;;;;;;18.40;2.77;;;;;;;;;;4990363;28;20686;-49
2021/12/04 04:05:37;;;;;;;14.57;2.30;;;1.30;99.90;;;;;;4990499;28;20228;-49
2021/12/04 04:08:03;;;;;;;33.90;4.63;;;;;;;;;;4990290;28;20320;-49
2021/12/04 04:10:29;;;;;;;24.13;3.40;;;;;;;;;;4990686;28;20299;-49
2021/12/04 04:12:55;;;;;;;27.73;3.73;;;;;;;;;;4990491;28;20368;-49
2021/12/04 04:15:22;;;;;;;27.10;3.77;;;;;;;;;;4990440;28;20244;-48
2021/12/04 04:17:48;;;;;;;30.77;4.23;;;1.30;99.90;;;;;;4990566;28;20217;-49
2021/12/04 04:20:17;;;;;;;33.90;4.47;;;1.30;99.90;;;;;;4991853;28;20233;-49
2021/12/04 04:22:44;;;;;;;30.50;4.10;;;1.10;99.90;;;;;;4994662;28;20577;-49
2021/12/04 04:25:10;;;;;;;10.20;1.77;;;;;;;;;;4993916;28;20305;-49
2021/12/04 04:27:36;;;;;;;21.47;3.07;;;;;;;;;;4994152;28;20233;-48
2021/12/04 04:30:04;;;;;;;33.03;4.47;;;1.30;99.90;;;;;;4993805;28;20701;-49
2021/12/04 04:32:30;;;;;;;22.53;3.17;;;1.10;99.90;;;;;;4994335;28;20300;-49
2021/12/04 04:35:06;;;;;;;24.30;3.47;;;;;;;;;;4993952;28;20284;-49
2021/12/04 04:38:02;;;;;;;30.17;4.10;;;;;;;;;;4994408;28;20193;-48
2021/12/04 04:59:32;;;;;;;28.10;3.93;;;1.30;99.90;;;;;;4993313;28;20168;-49
2021/12/04 05:02:26;;;;;;;25.17;3.60;;;1.30;99.90;;;;;;4993831;28;20170;-49
2021/12/04 05:10:20;;;;;;;21.87;3.10;;;1.10;99.90;;;;;;4992752;28;20361;-49
2021/12/04 05:12:50;;;;;;;21.23;3.13;;;;;;;;;;4993008;28;20216;-50
2021/12/04 05:15:24;;;;;;;11.40;1.93;;;1.20;99.90;;;;;;4993094;28;20241;-49
2021/12/04 05:20:21;;;;;;;34.53;4.60;;;1.00;99.90;;;;;;4992755;28;20715;-49
2021/12/04 05:22:47;;;;;;;30.40;4.10;;;;;;;;;;4993411;28;20626;-48
2021/12/04 05:25:13;;;;;;;26.70;3.70;;;1.00;99.90;;;;;;4992774;28;20231;-49
2021/12/04 05:27:42;;;;;;;31.53;4.27;;;;;;;;;;4992677;28;20770;-49
2021/12/04 05:30:08;;;;;;;29.70;4.07;;;1.70;99.90;;;;;;4992863;28;20637;-49
2021/12/04 05:32:33;;;;;;;29.10;3.97;;;1.10;99.90;;;;;;4991727;28;20221;-51
2021/12/04 05:34:59;;;;;;;24.37;3.60;;;1.40;99.90;;;;;;4992800;28;20205;-49
2021/12/04 05:37:25;;;;;;;4.27;1.03;;;;;;;;;;4993246;28;20236;-49
2021/12/04 05:39:51;;;;;;;23.93;3.43;;;;;;;;;;4992193;28;20228;-49
2021/12/04 05:42:17;;;;;;;32.03;4.37;;;;;;;;;;4992630;28;20733;-48
2021/12/04 05:44:44;;;;;;;23.60;3.40;;;;;;;;;;4992469;28;20225;-49
2021/12/04 05:47:41;;;;;;;24.70;3.63;;;0.90;99.90;;;;;;4992536;28;20566;-49
2021/12/04 05:57:32;;;;;;;27.63;3.87;;;;;;;;;;4992304;28;20224;-49
2021/12/04 05:59:57;;;;;;;27.07;3.80;;;1.20;99.90;;;;;;4992053;28;20213;-49
2021/12/04 06:02:23;;;;;;;27.63;3.83;;;1.30;99.90;;;;;;4992621;28;20214;-49
2021/12/04 06:04:49;;;;;;;31.37;4.30;;;;;;;;;;4992581;28;20194;-49
2021/12/04 06:07:15;;;;;;;37.37;4.93;;;;;;;;;;4991870;28;20213;-49
2021/12/04 06:09:41;;;;;;;31.07;4.27;;;;;;;;;;4974227;28;20642;-48
2021/12/04 06:12:08;;;;;;;2.70;0.90;;;;;;;;;;4992009;28;20304;-49
2021/12/04 06:14:34;;;;;;;26.80;3.73;;;1.10;99.90;;;;;;4992217;28;20217;-49
2021/12/04 06:17:01;;;;;;;22.13;3.37;;;;;;;;;;4991995;28;20181;-49
2021/12/04 06:22:37;;;;;;;26.80;3.70;;;1.10;99.90;;;;;;4992466;28;20534;-49
2021/12/04 06:24:57;;;;;;;23.93;3.47;;;1.40;99.90;;;;;;4990641;28;20288;-49
2021/12/04 06:27:23;;;;;;;23.73;3.33;;;;;;;;;;4992047;28;20629;-49
2021/12/04 06:29:49;;;;;;;35.03;4.77;;;1.40;99.90;;;;;;4991602;28;20236;-49
2021/12/04 06:32:14;;;;;;;22.20;3.17;;;1.40;99.90;;;;;;4991857;28;20221;-49
2021/12/04 06:34:40;;;;;;;25.43;3.57;;;1.20;99.90;;;;;;4992523;28;20229;-49
2021/12/04 06:37:06;;;;;;;23.17;3.23;;;;;;;;;;4974093;28;20213;-48
2021/12/04 06:39:32;;;;;;;24.07;3.37;;;;;;;;;;4991402;28;20260;-49
2021/12/04 06:41:58;;;;;;;37.80;5.03;;;;;;;;;;4991445;28;20241;-49
2021/12/04 06:44:23;;;;;;;7.10;1.33;;;1.50;99.90;;;;;;4991053;28;20237;-49
2021/12/04 06:46:49;;;;;;;14.43;2.30;;;1.30;99.90;;;;;;4974671;28;20928;-49
2021/12/04 06:49:20;;;;;;;23.03;3.33;;;1.20;99.90;;;;;;4991289;28;20267;-49
2021/12/04 06:51:50;;;;;;;30.47;4.13;;;1.20;99.90;;;;;;4991529;28;20563;-49
2021/12/04 06:54:22;;;;;;;24.07;3.40;;;;;;;;;;4991317;28;20304;-48
2021/12/04 06:56:48;;;;;;;31.07;4.23;;;1.20;99.90;;;;;;4991172;28;20252;-48
2021/12/04 06:59:18;;;;;;;23.50;3.23;;;1.50;99.90;;;;;;4991447;28;20221;-48
2021/12/04 07:01:44;;;;;;;24.93;3.53;;;;;;;;;;4991916;28;20206;-48
2021/12/04 07:04:11;;;;;;;34.07;4.67;;;;;;;;;;4991195;28;20222;-48
2021/12/04 07:06:36;;;;;;;27.70;3.87;;;1.40;99.90;;;;;;4991192;28;20268;-48
2021/12/04 07:09:04;;;;;;;25.37;3.50;;;1.30;99.90;;;;;;4990819;28;20594;-48
2021/12/04 07:11:30;;;;;;;30.23;4.17;;;1.50;99.90;;;;;;4991018;28;20220;-48
2021/12/04 07:13:56;;;;;;;34.17;4.57;;;1.50;99.90;;;;;;4990818;28;20634;-48
2021/12/04 07:16:22;;;;;;;35.57;4.73;;;1.50;99.90;;;;;;4991421;28;20181;-48
2021/12/04 07:18:48;;;;;;;67.80;8.43;;;1.30;99.90;;;;;;4990646;28;20300;-48
2021/12/04 07:21:14;;;;;;;46.13;5.87;;;1.60;99.90;;;;;;4990702;28;20221;-48
2021/12/04 07:23:39;;;;;;;24.50;3.47;;;1.40;99.90;;;;;;4990759;28;20221;-48
2021/12/04 07:26:06;;;;;;;30.17;4.00;;;1.40;99.90;;;;;;4990984;28;20201;-48
2021/12/04 07:28:32;;;;;;;14.27;2.27;;;1.40;99.90;;;;;;4991166;28;20615;-48
2021/12/04 07:30:57;;;;;;;17.30;2.67;;;1.60;99.90;;;;;;4990616;28;20232;-48
2021/12/04 07:33:23;;;;;;;29.17;3.97;;;;;;;;;;4990697;28;20224;-48
2021/12/04 07:35:51;;;;;;;31.27;4.37;;;1.50;99.90;;;;;;4989983;28;20225;-48
2021/12/04 07:38:17;;;;;;;33.53;4.50;;;1.50;99.90;;;;;;4989966;28;20220;-48
2021/12/04 07:40:43;;;;;;;41.83;5.50;;;1.50;99.90;;;;;;4991442;28;20169;-48
2021/12/04 07:43:10;;;;;;;7.80;1.50;;;1.50;99.90;;;;;;4990802;28;20224;-48
2021/12/04 07:45:37;;;;;;;25.53;3.63;;;1.40;99.90;;;;;;4990679;28;20214;-48
2021/12/04 07:48:03;;;;;;;36.37;4.87;;;1.60;99.90;;;;;;4990608;28;20594;-48
2021/12/04 07:50:29;;;;;;;29.97;4.13;;;;;;;;;;4990472;28;20231;-48
2021/12/04 07:52:56;;;;;;;41.13;5.43;;;1.50;99.90;;;;;;4990453;28;20848;-48
2021/12/04 07:55:22;;;;;;;25.77;3.63;;;;;;;;;;4992990;28;20197;-49
2021/12/04 07:57:48;;;;;;;38.80;5.27;;;;;;;;;;4994264;28;20229;-48
2021/12/04 08:00:17;;;;;;;30.80;4.20;;;1.60;99.90;;;;;;4994275;28;20222;-48
2021/12/04 08:02:42;;;;;;;28.43;3.93;;;1.80;99.90;;;;;;4994830;28;20680;-48
2021/12/04 08:05:10;;;;;;;34.27;4.60;;;1.60;99.90;;;;;;4994207;28;20193;-48
2021/12/04 08:07:36;;;;;;;26.80;3.70;;;1.70;99.90;;;;;;4995023;28;20264;-48
2021/12/04 08:10:03;;;;;;;28.90;3.93;;;1.40;99.90;;;;;;4993979;28;20273;-48
2021/12/04 08:12:28;;;;;;;28.50;3.87;;;1.60;99.90;;;;;;4994035;28;20304;-48
2021/12/04 08:14:54;;;;;;;40.97;5.43;;;1.70;99.90;;;;;;4993893;28;20305;-48
2021/12/04 08:17:21;;;;;;;13.77;2.23;;;1.60;99.90;;;;;;4994355;28;20850;-48
2021/12/04 08:19:46;;;;;;;27.50;3.80;;;1.70;99.90;;;;;;4994476;28;20677;-48
2021/12/04 08:22:12;;;;;;;27.83;3.83;;;;;;;;;;4994218;28;20221;-49
2021/12/04 08:24:40;;;;;;;31.80;4.40;;;;;;;;;;4993800;28;20233;-48
2021/12/04 08:27:08;;;;;;;19.30;2.87;;;1.60;99.90;;;;;;4994204;28;20228;-48
2021/12/04 08:29:33;;;;;;;25.53;3.57;;;1.70;99.90;;;;;;4993981;28;20225;-48
2021/12/04 08:31:59;;;;;;;34.47;4.70;;;;;;;;;;4993728;28;20661;-49
2021/12/04 08:34:25;;;;;;;41.77;5.60;;;;;;;;;;4993932;28;20201;-48
2021/12/04 08:36:52;;;;;;;37.60;5.10;;;1.30;99.90;;;;;;4993662;28;20229;-48
2021/12/04 08:39:19;;;;;;;23.07;3.30;;;1.90;99.90;;;;;;4993558;28;20308;-48
2021/12/04 08:41:45;;;;;;;29.00;4.07;;;;;;;;;;4994113;28;20304;-48
2021/12/04 08:44:11;;;;;;;30.97;4.37;;;;;;;;;;4993255;28;20236;-48
2021/12/04 08:46:38;;;;;;;35.30;4.80;;;;;;;;;;4994219;28;20174;-48
2021/12/04 08:49:05;;;;;;;21.43;3.17;;;1.90;99.90;;;;;;4993476;28;20224;-48
2021/12/04 08:51:31;;;;;;;28.80;4.03;;;1.80;99.90;;;;;;4993598;28;20217;-48
2021/12/04 08:53:57;;;;;;;33.27;4.53;;;1.80;99.90;;;;;;4993456;28;20352;-48
2021/12/04 08:56:23;;;;;;;29.60;4.10;;;;;;;;;;4993543;28;20662;-48
2021/12/04 08:58:50;;;;;;;41.37;5.57;;;;;;;;;;4993671;28;20233;-48
2021/12/04 09:01:24;;;;;;;25.27;3.57;;;1.90;99.90;;;;;;4993716;28;20220;-48
2021/12/04 09:03:54;;;;;;;24.83;3.50;;;1.80;99.90;;;;;;5011701;28;20220;-48
2021/12/04 09:06:20;;;;;;;31.77;4.23;;;1.90;99.90;;;;;;5012832;28;20213;-48
2021/12/04 09:08:47;;;;;;;47.47;6.23;;;1.80;99.90;;;;;;5012610;28;20354;-48
2021/12/04 09:11:18;;;;;;;33.17;4.57;;;1.60;99.90;;;;;;5012616;28;20217;-48
2021/12/04 09:13:44;;;;;;;28.93;4.00;;;2.40;99.90;;;;;;5013255;28;20154;-48
2021/12/04 09:16:10;;;;;;;31.17;4.30;;;2.10;99.90;;;;;;5012484;28;20213;-47
2021/12/04 09:18:36;;;;;;;18.83;2.83;;;2.10;99.90;;;;;;5012384;28;20227;-48
2021/12/04 09:21:05;;;;;;;34.00;4.57;;;1.90;99.90;;;;;;5012311;28;20217;-47
2021/12/04 09:23:36;;;;;;;27.97;3.97;;;2.10;99.90;;;;;;5012164;28;20303;-48
2021/12/04 09:26:04;;;;;;;27.20;4.00;;;;;;;;;;5012729;28;20201;-48
2021/12/04 09:28:46;;;;;;;34.77;4.70;;;2.20;99.90;;;;;;5012995;28;20177;-48
2021/12/04 09:31:25;;;;;;;27.80;3.83;;;2.30;99.90;;;;;;5012595;28;20236;-48
2021/12/04 10:15:50;;;;;;;27.83;3.97;;;2.30;99.90;;;;;;5010415;28;20224;-48
2021/12/04 10:33:45;;;;;;;28.87;4.00;;;2.00;99.90;;;;;;5011408;28;20232;-48
2021/12/04 10:36:12;;;;;;;36.70;5.10;;;1.80;99.90;;;;;;5010967;28;20221;-48
2021/12/04 10:38:44;;;;;;;29.57;4.17;;;2.20;99.90;;;;;;5010831;28;20224;-48
2021/12/04 10:41:15;;;;;;;30.83;4.37;;;2.20;99.90;;;;;;5011529;28;20165;-48
2021/12/04 10:43:41;;;;;;;17.00;2.70;;;;;;;;;;5011368;28;20165;-48
2021/12/04 10:46:16;;;;;;;13.13;2.10;;;2.40;99.90;;;;;;5011224;28;20219;-48
2021/12/04 10:51:49;;;;;;;30.40;4.23;;;2.10;99.90;;;;;;5001981;28;20221;-48
2021/12/04 10:54:29;;;;;;;34.67;4.73;;;2.20;99.90;;;;;;5010388;28;20224;-48
2021/12/04 10:57:15;;;;;;;26.00;3.67;;;2.50;99.90;;;;;;5010903;28;20216;-48
2021/12/04 10:59:50;;;;;;;27.40;3.87;;;2.30;99.90;;;;;;5010886;28;20239;-48
2021/12/04 11:02:29;;;;;;;29.40;4.07;;;2.50;99.90;;;;;;5011087;28;20572;-48
2021/12/04 11:05:25;;;;;;;33.30;4.60;;;2.20;99.90;;;;;;5011403;28;20212;-48
2021/12/04 11:19:03;;;;;;;30.33;4.17;;;2.40;99.90;;;;;;5010516;28;20247;-48
2021/12/04 11:27:04;;;;;;;32.07;4.43;;;2.50;99.90;;;;;;4990678;28;20752;-48
2021/12/04 11:35:04;;;;;;;29.60;4.07;;;2.50;99.90;;;;;;4991273;28;20275;-48
2021/12/04 11:38:01;;;;;;;14.67;2.30;;;;;;;;;;4990812;28;20216;-49
2021/12/04 11:40:38;;;;;;;43.93;5.80;;;2.50;99.90;;;;;;5006965;28;20212;-48
2021/12/04 11:43:12;;;;;;;27.87;3.90;;;2.30;99.90;;;;;;5010370;28;20236;-48
2021/12/04 11:46:17;;;;;;;25.87;3.67;;;2.50;99.90;;;;;;4990515;28;20223;-48
2021/12/04 11:48:33;;;;;;;36.70;5.03;;;2.70;99.90;;;;;;4990264;28;20217;-48
2021/12/04 11:51:00;;;;;;;26.87;3.80;;;2.60;99.90;;;;;;4990522;28;20229;-48
2021/12/04 11:53:27;;;;;;;30.67;4.20;;;2.90;99.90;;;;;;4990639;28;20693;-48
2021/12/04 11:55:53;;;;;;;32.33;4.43;;;2.90;99.90;;;;;;4991027;28;20208;-48
2021/12/04 11:58:28;;;;;;;38.57;5.27;;;2.60;99.90;;;;;;4990453;28;20209;-49
2021/12/04 12:00:58;;;;;;;27.77;3.80;;;2.60;99.90;;;;;;4990406;28;20231;-49
2021/12/04 12:03:27;;;;;;;34.00;4.70;;;2.60;99.90;;;;;;4990509;28;20229;-49
2021/12/04 12:06:08;;;;;;;31.47;4.27;;;2.80;99.90;;;;;;4990447;28;20225;-50
2021/12/04 12:08:36;;;;;;;29.80;4.13;;;2.80;99.90;;;;;;4990219;28;20217;-49
2021/12/04 12:11:09;;;;;;;31.07;4.47;;;3.00;99.90;;;;;;4990335;28;20268;-49
2021/12/04 12:13:40;;;;;;;37.00;5.03;;;3.20;99.90;;;;;;4991148;28;20186;-47
2021/12/04 12:16:14;;;;;;;26.97;3.83;;;3.20;99.90;;;;;;4990345;28;20300;-49
2021/12/04 12:18:46;;;;;;;31.60;4.40;;;3.20;99.90;;;;;;4990327;28;20250;-49
2021/12/04 12:21:15;;;;;;;32.70;4.57;;;3.10;99.90;;;;;;5006716;28;20796;-49
2021/12/04 12:27:43;;;;;;;30.67;4.23;;;2.90;99.90;;;;;;5009828;28;20303;-49
2021/12/04 12:33:03;;;;;;;25.80;3.60;;;3.00;99.90;;;;;;5009939;28;20743;-48
2021/12/04 12:38:56;;;;;;;28.70;4.07;;;2.70;99.90;;;;;;5009575;28;20243;-49
2021/12/04 12:41:42;;;;;;;31.33;4.33;;;2.30;99.90;;;;;;5011058;28;20237;-49
2021/12/04 12:44:27;;;;;;;35.10;4.93;;;2.60;99.90;;;;;;5013062;28;20224;-49
2021/12/04 12:46:57;;;;;;;25.53;3.67;;;2.70;99.90;;;;;;5013508;28;20184;-49
2021/12/04 12:49:28;;;;;;;30.60;4.23;;;2.80;99.90;;;;;;5013157;28;20228;-49
2021/12/04 12:52:01;;;;;;;39.33;5.17;;;2.60;99.90;;;;;;5013022;28;20759;-49
2021/12/04 12:54:36;;;;;;;46.93;6.10;;;2.50;99.90;;;;;;5012585;28;20873;-48
2021/12/04 12:57:19;;;;;;;34.40;4.67;;;2.00;99.90;;;;;;5012821;28;20255;-48
2021/12/04 13:11:40;;;;;;;40.83;5.53;;;;;;;;;;5013582;28;20199;-49
2021/12/04 13:13:43;;;;;;;27.37;3.87;;;2.40;99.90;;;;;;5012411;28;20216;-48
2021/12/04 13:16:31;;;;;;;26.43;3.67;;;2.40;99.90;;;;;;5012683;28;20219;-48
2021/12/04 13:19:05;;;;;;;22.73;3.33;;;2.50;99.90;;;;;;5012113;28;20208;-48
2021/12/04 13:21:34;;;;;;;30.87;4.27;;;2.50;99.90;;;;;;5012806;28;20235;-48
2021/12/04 13:23:59;;;;;;;26.27;3.73;;;2.60;99.90;;;;;;5012343;28;20213;-49
2021/12/04 13:26:31;;;;;;;41.10;5.50;;;2.50;99.90;;;;;;5012344;28;20215;-48
2021/12/04 13:29:00;;;;;;;23.23;3.37;;;2.20;99.90;;;;;;5012799;28;20176;-48
2021/12/04 13:31:26;;;;;;;26.33;3.73;;;2.40;99.90;;;;;;5012672;28;20343;-48
2021/12/04 13:33:53;;;;;;;33.03;4.43;;;2.50;99.90;;;;;;5012447;28;20299;-48
2021/12/04 13:36:27;;;;;;;10.77;1.77;;;2.50;99.90;;;;;;5011963;28;20711;-48
2021/12/04 13:39:00;;;;;;;40.80;5.40;;;2.50;99.90;;;;;;5011916;28;20215;-48
2021/12/04 13:41:28;;;;;;;29.17;4.07;;;2.30;99.90;;;;;;5012345;28;20538;-48
2021/12/04 13:43:56;;;;;;;38.50;5.07;;;2.30;99.90;;;;;;5012814;28;20177;-48
2021/12/04 13:46:22;;;;;;;35.97;4.83;;;2.40;99.90;;;;;;5012068;28;20208;-48
2021/12/04 13:48:47;;;;;;;35.37;4.83;;;2.30;99.90;;;;;;5012210;28;20590;-48
2021/12/04 13:51:14;;;;;;;33.40;4.57;;;;;;;;;;5011199;28;20320;-49
2021/12/04 13:53:41;;;;;;;38.60;5.17;;;;;;;;;;5010690;28;20311;-48
2021/12/04 13:56:11;;;;;;;23.00;3.47;;;2.20;99.90;;;;;;5012163;28;20165;-48
2021/12/04 13:58:57;;;;;;;23.47;3.43;;;2.40;99.90;;;;;;5012244;28;20189;-48
2021/12/04 14:01:27;;;;;;;22.03;3.17;;;2.20;99.90;;;;;;5012168;28;20220;-48
2021/12/04 14:04:02;;;;;;;16.93;2.53;;;2.40;99.90;;;;;;5011924;28;20212;-48
2021/12/04 14:06:28;;;;;;;34.93;4.77;;;2.00;99.90;;;;;;5011365;28;20236;-49
2021/12/04 14:08:57;;;;;;;37.17;5.00;;;2.20;99.90;;;;;;5011558;28;20292;-49
2021/12/04 14:11:33;;;;;;;28.17;3.90;;;2.20;99.90;;;;;;5011526;28;20287;-48
2021/12/04 14:14:08;;;;;;;25.03;3.57;;;2.30;99.90;;;;;;5011757;28;20248;-48
2021/12/04 14:16:33;;;;;;;27.43;3.80;;;2.30;99.90;;;;;;5011999;28;20201;-48
2021/12/04 14:18:59;;;;;;;25.67;3.70;;;;;;;;;;5011517;28;20307;-48
2021/12/04 14:21:25;;;;;;;46.47;6.10;;;2.20;99.90;;;;;;5011036;28;20263;-48
2021/12/04 14:23:50;;;;;;;31.93;4.33;;;2.10;99.90;;;;;;5010500;28;20216;-48
2021/12/04 14:26:17;;;;;;;29.13;4.07;;;;;;;;;;5011346;28;20213;-48
2021/12/04 14:28:46;;;;;;;25.03;3.53;;;2.20;99.90;;;;;;5011771;28;20768;-48
2021/12/04 14:31:13;;;;;;;26.13;3.67;;;2.20;99.90;;;;;;5011476;28;20221;-48
2021/12/04 14:33:40;;;;;;;25.37;3.70;;;3.00;99.90;;;;;;5011472;28;20295;-49
2021/12/04 14:36:06;;;;;;;48.03;6.30;;;2.30;99.90;;;;;;5010803;28;20217;-48
2021/12/04 14:38:33;;;;;;;30.10;4.13;;;2.10;99.90;;;;;;5011455;28;20905;-48
2021/12/04 14:41:04;;;;;;;31.33;4.43;;;2.20;99.90;;;;;;5011482;28;20180;-48
2021/12/04 14:43:35;;;;;;;30.33;4.20;;;2.40;99.90;;;;;;5010941;28;20197;-48
2021/12/04 14:46:01;;;;;;;24.20;3.50;;;;;;;;;;5011156;28;20255;-49
2021/12/04 14:48:36;;;;;;;28.37;3.87;;;2.00;99.90;;;;;;5011247;28;20563;-48
2021/12/04 14:51:15;;;;;;;8.23;1.53;;;2.40;99.90;;;;;;5011203;28;20255;-48
2021/12/04 14:53:50;;;;;;;18.43;2.87;;;2.20;99.90;;;;;;5011003;28;20284;-48
2021/12/04 14:56:19;;;;;;;31.17;4.27;;;2.30;99.90;;;;;;5010895;28;20212;-49
2021/12/04 14:58:45;;;;;;;33.17;4.53;;;;;;;;;;5011343;28;20173;-48
2021/12/04 15:01:13;;;;;;;7.53;1.47;;;2.20;99.90;;;;;;5011033;28;20722;-48
2021/12/04 15:03:41;;;;;;;17.23;2.60;;;;;;;;;;5010804;28;20263;-48
2021/12/04 15:06:10;;;;;;;38.93;5.20;;;2.10;99.90;;;;;;5010795;28;20225;-49
2021/12/04 15:08:42;;;;;;;33.20;4.53;;;2.20;99.90;;;;;;5010476;28;20292;-49
2021/12/04 15:11:16;;;;;;;30.77;4.37;;;2.00;99.90;;;;;;5010553;28;20205;-49
2021/12/04 15:13:50;;;;;;;31.97;4.40;;;2.10;99.90;;;;;;5011010;28;20570;-49
2021/12/04 15:16:18;;;;;;;16.13;2.43;;;2.00;99.90;;;;;;5010703;28;20216;-49
2021/12/04 15:18:44;;;;;;;25.07;3.67;;;2.10;99.90;;;;;;5010604;28;20224;-49
2021/12/04 15:21:17;;;;;;;18.87;2.93;;;2.40;99.90;;;;;;5010648;28;20592;-49
2021/12/04 15:23:45;;;;;;;32.17;4.43;;;2.20;99.90;;;;;;5010524;28;20631;-49
2021/12/04 15:26:17;;;;;;;31.37;4.40;;;2.50;99.90;;;;;;5010668;28;20228;-49
2021/12/04 15:28:48;;;;;;;25.57;3.57;;;2.10;99.90;;;;;;5011193;28;20240;-49
2021/12/04 15:31:14;;;;;;;27.63;4.00;;;2.00;99.90;;;;;;5010226;28;20282;-49
2021/12/04 15:33:42;;;;;;;27.07;3.83;;;;;;;;;;5010401;28;20213;-49
2021/12/04 15:36:19;;;;;;;30.27;4.27;;;1.90;99.90;;;;;;5010524;28;20209;-49
2021/12/04 15:38:50;;;;;;;27.77;3.97;;;2.30;99.90;;;;;;5009990;28;20271;-49
2021/12/04 15:41:33;;;;;;;28.97;4.03;;;2.00;99.90;;;;;;5010633;28;20233;-49
2021/12/04 15:46:41;;;;;;;30.03;4.20;;;2.00;99.90;;;;;;5010359;28;20213;-49
2021/12/04 15:49:31;;;;;;;13.73;2.27;;;1.90;99.90;;;;;;4992644;28;20208;-49
2021/12/04 15:54:51;;;;;;;24.07;3.50;;;2.00;99.90;;;;;;5010133;28;20270;-49
2021/12/04 15:57:20;;;;;;;23.70;3.40;;;2.00;99.90;;;;;;5010099;28;20307;-49
2021/12/04 15:59:49;;;;;;;25.07;3.57;;;1.60;99.90;;;;;;4992607;28;20593;-49
2021/12/04 16:02:19;;;;;;;23.60;3.37;;;1.90;99.90;;;;;;5010456;28;20715;-49
2021/12/04 16:04:45;;;;;;;21.23;3.10;;;1.90;99.90;;;;;;5010759;28;20240;-49
2021/12/04 16:07:25;;;;;;;25.77;3.60;;;2.10;99.90;;;;;;5010095;28;20320;-49
2021/12/04 16:09:51;;;;;;;26.37;3.73;;;;;;;;;;5009608;28;20274;-49
2021/12/04 16:12:21;;;;;;;24.40;3.50;;;1.90;99.90;;;;;;5010243;28;20220;-49